Time;durP1;ratioP1;P1;durP2;ratioP2;P2;SDS_P1;SDS_P2;PMS_P1;PMS_P2;Temp;Humidity;BMP_temperature;BMP_pressure;BME280_temperature;BME280_humidity;BME280_pressure;Samples;Min_cycle;Max_cycle;Signal;HPM_P1;HPM_P2
2023/10/04 00:00:53;;;;;;;9.60;2.30;;;12.80;45.00;;;;;;5021907;28;46436;-80
2023/10/04 00:03:19;;;;;;;5.50;2.53;;;12.90;44.60;;;;;;5020968;28;46565;-78
2023/10/04 00:05:45;;;;;;;6.63;2.57;;;13.10;44.10;;;;;;5006434;28;46651;-78
2023/10/04 00:08:10;;;;;;;6.17;2.43;;;13.20;43.60;;;;;;5018878;28;46405;-78
2023/10/04 00:10:36;;;;;;;5.37;2.50;;;13.30;43.30;;;;;;5002619;28;46829;-79
2023/10/04 00:13:01;;;;;;;10.13;2.87;;;13.30;43.10;;;;;;5020625;28;45869;-79
2023/10/04 00:15:29;;;;;;;5.00;2.20;;;13.30;43.20;;;;;;5003167;28;46608;-78
2023/10/04 00:17:55;;;;;;;5.80;2.30;;;13.20;43.20;;;;;;5020727;28;46714;-80
2023/10/04 00:20:22;;;;;;;5.77;2.20;;;13.10;43.50;;;;;;5023891;28;46710;-79
2023/10/04 00:22:48;;;;;;;5.70;2.67;;;13.00;44.00;;;;;;5021866;28;46566;-79
2023/10/04 00:25:16;;;;;;;4.77;2.30;;;12.80;44.50;;;;;;5021982;28;46512;-79
2023/10/04 00:27:43;;;;;;;12.50;2.60;;;12.70;45.30;;;;;;5019870;28;46509;-78
2023/10/04 00:30:14;;;;;;;6.03;2.17;;;12.50;45.80;;;;;;5020205;28;46431;-78
2023/10/04 00:32:40;;;;;;;4.90;2.10;;;12.50;47.60;;;;;;5021450;28;46725;-78
2023/10/04 00:35:09;;;;;;;5.07;2.50;;;12.40;46.60;;;;;;5020883;28;46774;-80
2023/10/04 00:37:35;;;;;;;6.77;2.60;;;12.30;46.80;;;;;;5003236;28;49375;-80
2023/10/04 00:40:01;;;;;;;6.53;3.10;;;12.30;47.20;;;;;;5023164;28;46461;-82
2023/10/04 00:42:26;;;;;;;7.27;2.57;;;12.20;47.40;;;;;;5027323;28;46543;-82
2023/10/04 00:44:52;;;;;;;5.40;3.00;;;12.10;47.50;;;;;;5010448;28;46563;-78
2023/10/04 00:47:18;;;;;;;5.10;2.80;;;12.10;47.70;;;;;;5020714;28;46265;-79
2023/10/04 00:49:47;;;;;;;4.03;2.17;;;12.00;47.80;;;;;;5020883;28;46848;-79
2023/10/04 00:52:13;;;;;;;5.40;2.43;;;11.90;48.00;;;;;;5019087;28;46596;-80
2023/10/04 00:54:40;;;;;;;4.13;2.37;;;11.90;48.30;;;;;;5020786;28;46369;-79
2023/10/04 00:57:10;;;;;;;5.37;2.43;;;11.80;48.80;;;;;;5021309;28;46886;-79
2023/10/04 00:59:36;;;;;;;5.50;3.07;;;11.70;49.10;;;;;;5020127;28;45802;-79
2023/10/04 01:02:01;;;;;;;6.10;2.83;;;11.60;49.30;;;;;;5019970;28;46762;-77
2023/10/04 01:04:27;;;;;;;6.50;2.80;;;11.50;49.50;;;;;;5020561;28;47129;-78
2023/10/04 01:06:54;;;;;;;10.23;3.00;;;11.40;49.70;;;;;;5021772;28;46494;-79
2023/10/04 01:09:23;;;;;;;7.73;3.47;;;11.40;49.90;;;;;;5020214;28;46380;-80
2023/10/04 01:11:48;;;;;;;8.00;2.00;;;11.50;50.20;;;;;;5021400;28;46492;-80
2023/10/04 01:14:38;;;;;;;5.27;2.67;;;11.30;50.00;;;;;;5019759;28;46496;-79
2023/10/04 01:17:10;;;;;;;6.13;2.50;;;11.30;50.00;;;;;;5019835;28;47136;-79
2023/10/04 01:19:35;;;;;;;10.53;2.60;;;11.30;50.00;;;;;;5022116;28;46580;-80
2023/10/04 01:22:04;;;;;;;9.43;2.73;;;11.20;50.00;;;;;;5021239;28;46720;-80
2023/10/04 01:24:33;;;;;;;6.23;2.37;;;11.20;50.10;;;;;;5020575;28;46682;-79
2023/10/04 01:26:59;;;;;;;6.07;2.67;;;11.10;50.10;;;;;;5019866;28;47157;-78
2023/10/04 01:29:24;;;;;;;7.00;2.73;;;11.20;50.10;;;;;;5019735;28;46375;-79
2023/10/04 01:31:50;;;;;;;8.37;2.50;;;11.20;50.10;;;;;;5001861;28;46438;-79
2023/10/04 01:34:15;;;;;;;6.70;2.70;;;11.10;50.20;;;;;;5019350;28;46538;-79
2023/10/04 01:36:41;;;;;;;6.27;2.50;;;11.00;51.40;;;;;;5019796;28;48589;-79
2023/10/04 01:39:08;;;;;;;5.63;3.00;;;11.00;50.50;;;;;;5018546;28;46498;-80
2023/10/04 01:41:39;;;;;;;10.83;3.50;;;10.90;50.70;;;;;;5021252;28;46759;-78
2023/10/04 01:44:09;;;;;;;5.83;2.33;;;10.90;51.00;;;;;;5018475;28;47642;-80
2023/10/04 01:46:38;;;;;;;6.47;2.50;;;10.80;51.10;;;;;;5017307;28;46473;-78
2023/10/04 01:49:07;;;;;;;4.63;2.50;;;10.80;51.10;;;;;;5019729;28;47200;-79
2023/10/04 01:51:33;;;;;;;6.30;2.70;;;10.80;51.10;;;;;;5019936;28;46409;-80
2023/10/04 01:54:00;;;;;;;7.83;2.70;;;10.70;51.10;;;;;;5020364;28;46489;-80
2023/10/04 01:56:26;;;;;;;5.90;2.60;;;10.70;51.10;;;;;;5021516;28;46859;-81
2023/10/04 01:58:53;;;;;;;4.53;2.30;;;10.70;51.30;;;;;;5022841;28;46665;-82
2023/10/04 02:01:19;;;;;;;5.50;2.73;;;10.70;51.40;;;;;;5024737;28;45791;-80
2023/10/04 02:03:45;;;;;;;5.70;2.37;;;10.60;51.60;;;;;;5019405;28;46302;-80
2023/10/04 02:06:10;;;;;;;6.93;2.57;;;10.60;52.00;;;;;;5020572;28;46629;-76
2023/10/04 02:08:36;;;;;;;4.83;2.30;;;10.60;52.20;;;;;;5022541;28;46549;-81
2023/10/04 02:11:04;;;;;;;6.10;2.60;;;10.60;52.20;;;;;;5021936;28;46663;-82
2023/10/04 02:13:32;;;;;;;8.30;3.10;;;10.50;52.10;;;;;;5022229;28;46729;-81
2023/10/04 02:15:59;;;;;;;5.20;2.53;;;10.50;52.20;;;;;;5024365;28;46669;-80
2023/10/04 02:18:24;;;;;;;11.10;2.30;;;10.40;52.10;;;;;;5028266;28;46491;-81
2023/10/04 02:20:53;;;;;;;6.70;2.70;;;10.40;52.00;;;;;;5026424;28;46457;-81
2023/10/04 02:23:19;;;;;;;8.27;3.20;;;10.30;52.10;;;;;;5027948;28;46688;-81
2023/10/04 02:25:45;;;;;;;18.20;2.73;;;10.30;52.60;;;;;;5004496;28;49504;-80
2023/10/04 02:28:11;;;;;;;4.80;2.43;;;10.20;52.60;;;;;;5018150;28;46691;-79
2023/10/04 02:30:40;;;;;;;6.07;3.30;;;10.20;54.20;;;;;;5019323;28;46774;-80
2023/10/04 02:33:13;;;;;;;4.90;2.57;;;10.10;53.20;;;;;;5019179;28;46528;-78
2023/10/04 02:35:44;;;;;;;8.00;2.60;;;10.10;53.70;;;;;;5000704;28;48180;-79
2023/10/04 02:38:23;;;;;;;6.63;2.80;;;10.00;53.90;;;;;;5019344;28;46400;-82
2023/10/04 02:40:50;;;;;;;5.93;2.43;;;10.00;54.10;;;;;;5021369;28;46356;-79
2023/10/04 02:43:17;;;;;;;8.57;2.83;;;10.00;54.00;;;;;;5022255;28;46467;-79
2023/10/04 02:45:43;;;;;;;6.50;2.60;;;10.00;53.90;;;;;;5020505;28;46172;-81
2023/10/04 02:48:10;;;;;;;9.20;3.07;;;10.00;53.80;;;;;;5002199;28;46456;-79
2023/10/04 02:50:39;;;;;;;6.67;3.50;;;10.00;53.80;;;;;;5023650;28;46499;-81
2023/10/04 02:53:06;;;;;;;5.23;2.90;;;10.00;53.80;;;;;;5017897;28;46309;-80
2023/10/04 02:55:32;;;;;;;6.30;3.50;;;10.00;53.90;;;;;;5017396;28;48010;-79
2023/10/04 02:57:59;;;;;;;7.57;3.23;;;10.00;54.00;;;;;;5019559;28;46809;-80
2023/10/04 03:00:25;;;;;;;7.13;3.73;;;9.90;55.10;;;;;;5002101;28;46636;-78
2023/10/04 03:02:52;;;;;;;8.80;3.97;;;9.90;55.30;;;;;;5020122;28;46724;-78
2023/10/04 03:05:19;;;;;;;6.60;3.67;;;9.90;55.40;;;;;;5020269;28;46592;-80
2023/10/04 03:07:50;;;;;;;6.13;3.50;;;9.90;55.50;;;;;;5019438;28;46429;-79
2023/10/04 03:10:23;;;;;;;10.40;4.03;;;9.80;55.50;;;;;;5000719;28;46368;-79
2023/10/04 03:12:53;;;;;;;5.70;3.23;;;9.90;55.60;;;;;;5017403;28;46479;-80
2023/10/04 03:15:23;;;;;;;7.43;3.63;;;9.80;55.60;;;;;;5020624;28;46621;-79
2023/10/04 03:17:53;;;;;;;8.07;3.07;;;9.80;55.80;;;;;;5020565;28;46451;-80
2023/10/04 03:20:23;;;;;;;6.97;3.13;;;9.70;56.10;;;;;;5007254;28;45816;-79
2023/10/04 03:22:50;;;;;;;6.70;3.30;;;9.60;56.20;;;;;;5021950;28;46492;-80
2023/10/04 03:25:16;;;;;;;8.30;4.40;;;9.60;56.40;;;;;;5021129;28;47030;-80
2023/10/04 03:27:46;;;;;;;4.77;2.40;;;9.50;56.60;;;;;;5004608;28;46754;-80
2023/10/04 03:30:15;;;;;;;6.60;2.70;;;9.40;56.60;;;;;;5019668;28;46411;-79
2023/10/04 03:32:49;;;;;;;5.17;2.83;;;9.30;56.70;;;;;;5021174;28;46460;-80
2023/10/04 03:35:14;;;;;;;6.40;3.00;;;9.20;57.10;;;;;;5022576;28;46649;-79
2023/10/04 03:37:49;;;;;;;5.93;2.90;;;9.20;57.20;;;;;;5024071;28;45987;-79
2023/10/04 03:40:14;;;;;;;9.33;3.20;;;9.10;57.30;;;;;;5003598;28;46434;-80
2023/10/04 03:42:41;;;;;;;8.00;3.40;;;9.00;58.60;;;;;;5021511;28;46036;-79
2023/10/04 03:45:08;;;;;;;4.50;2.43;;;9.00;57.60;;;;;;5022810;28;46573;-79
2023/10/04 03:47:35;;;;;;;8.10;2.70;;;8.90;58.30;;;;;;5020917;28;46346;-80
2023/10/04 03:50:01;;;;;;;7.90;2.80;;;8.80;57.70;;;;;;5001757;28;46466;-80
2023/10/04 03:52:28;;;;;;;9.17;3.20;;;8.80;57.70;;;;;;5024681;28;46669;-80
2023/10/04 03:54:54;;;;;;;5.83;3.40;;;8.80;57.70;;;;;;5020595;28;47248;-80
2023/10/04 03:57:20;;;;;;;7.93;3.40;;;8.80;57.70;;;;;;5023178;28;46389;-80
2023/10/04 03:59:45;;;;;;;5.80;3.53;;;8.80;58.00;;;;;;5024690;28;46402;-79
2023/10/04 04:02:12;;;;;;;7.23;3.40;;;8.90;58.00;;;;;;5007255;28;45982;-80
2023/10/04 04:04:38;;;;;;;10.00;3.07;;;8.80;58.00;;;;;;5005004;28;48272;-81
2023/10/04 04:07:03;;;;;;;9.27;3.80;;;8.90;59.10;;;;;;5025552;28;45809;-81
2023/10/04 04:09:29;;;;;;;5.40;2.77;;;8.90;57.70;;;;;;5028640;28;45871;-82
2023/10/04 04:11:54;;;;;;;14.40;3.00;;;8.90;57.70;;;;;;5026452;28;46472;-79
2023/10/04 04:14:20;;;;;;;5.47;3.13;;;8.90;57.80;;;;;;5019726;28;46535;-78
2023/10/04 04:16:46;;;;;;;7.23;3.80;;;8.90;57.80;;;;;;5021368;28;46623;-78
2023/10/04 04:19:14;;;;;;;7.43;3.67;;;8.80;57.70;;;;;;5007889;28;46488;-79
2023/10/04 04:21:40;;;;;;;8.53;3.63;;;8.90;57.80;;;;;;5022293;28;47830;-78
2023/10/04 04:24:06;;;;;;;7.33;3.97;;;8.80;57.70;;;;;;5021490;28;46757;-80
2023/10/04 04:26:33;;;;;;;6.67;3.47;;;8.90;57.80;;;;;;5025609;28;46866;-79
2023/10/04 04:28:59;;;;;;;7.43;3.57;;;8.80;57.70;;;;;;5027284;28;46456;-79
2023/10/04 04:31:25;;;;;;;11.90;4.20;;;8.80;57.70;;;;;;5019832;28;46360;-79
2023/10/04 04:33:53;;;;;;;14.10;3.60;;;8.80;57.70;;;;;;5002734;28;48186;-79
2023/10/04 04:36:25;;;;;;;12.23;4.33;;;8.80;57.70;;;;;;5003140;28;46006;-79
2023/10/04 04:38:52;;;;;;;9.97;4.30;;;8.80;57.70;;;;;;5020563;28;46445;-76
2023/10/04 04:41:24;;;;;;;8.67;4.70;;;8.80;57.90;;;;;;5002180;28;46583;-80
2023/10/04 04:43:51;;;;;;;6.60;3.70;;;8.80;58.00;;;;;;5003789;28;48406;-79
2023/10/04 04:46:18;;;;;;;8.40;4.97;;;8.80;57.90;;;;;;5022735;28;46491;-81
2023/10/04 04:48:46;;;;;;;10.80;4.63;;;8.80;58.00;;;;;;5019410;28;46803;-79
2023/10/04 04:51:12;;;;;;;11.23;4.90;;;8.80;58.00;;;;;;5020931;28;46567;-80
2023/10/04 04:53:42;;;;;;;11.67;4.40;;;8.90;58.20;;;;;;5021760;28;47348;-79
2023/10/04 04:56:13;;;;;;;10.10;5.57;;;8.90;58.30;;;;;;5020780;28;46451;-79
2023/10/04 04:58:49;;;;;;;8.70;4.60;;;8.90;58.40;;;;;;5002865;28;46425;-78
2023/10/04 05:01:15;;;;;;;7.40;4.40;;;8.90;58.50;;;;;;5021544;28;46483;-79
2023/10/04 05:03:43;;;;;;;10.60;4.80;;;8.90;58.50;;;;;;5002651;28;48123;-78
2023/10/04 05:06:13;;;;;;;17.37;4.77;;;8.80;58.50;;;;;;5020412;28;46441;-79
2023/10/04 05:08:40;;;;;;;13.30;4.57;;;8.80;58.60;;;;;;5020014;28;46498;-79
2023/10/04 05:11:06;;;;;;;8.97;4.13;;;8.80;58.60;;;;;;5022805;28;46972;-81
2023/10/04 05:13:32;;;;;;;7.97;4.50;;;8.80;58.60;;;;;;5020902;28;47091;-80
2023/10/04 05:15:59;;;;;;;10.30;4.90;;;8.90;58.70;;;;;;5020783;28;46551;-79
2023/10/04 05:18:26;;;;;;;7.23;4.23;;;8.80;58.70;;;;;;5018560;28;46705;-80
2023/10/04 05:20:54;;;;;;;7.50;3.67;;;8.80;58.60;;;;;;5020406;28;46463;-78
2023/10/04 05:23:32;;;;;;;8.30;3.87;;;8.70;58.70;;;;;;5019829;28;46962;-81
2023/10/04 05:25:59;;;;;;;7.13;3.40;;;8.70;58.80;;;;;;5003101;28;46520;-81
2023/10/04 05:28:25;;;;;;;7.20;3.73;;;8.60;58.80;;;;;;5001205;28;46789;-80
2023/10/04 05:30:51;;;;;;;5.67;3.60;;;8.60;58.90;;;;;;5019363;28;46519;-79
2023/10/04 05:33:19;;;;;;;8.83;3.33;;;8.50;58.90;;;;;;5021088;28;46461;-79
2023/10/04 05:35:46;;;;;;;6.03;3.20;;;8.50;59.00;;;;;;5023349;28;45750;-80
2023/10/04 05:38:14;;;;;;;6.10;3.00;;;8.40;59.00;;;;;;5019994;28;46452;-81
2023/10/04 05:40:43;;;;;;;6.00;2.80;;;8.30;59.00;;;;;;5023724;28;45908;-79
2023/10/04 05:43:09;;;;;;;7.90;3.47;;;8.20;59.10;;;;;;5026215;28;46361;-80
2023/10/04 05:45:36;;;;;;;8.37;2.90;;;8.20;59.20;;;;;;5008103;28;47103;-80
2023/10/04 05:48:04;;;;;;;6.93;2.80;;;8.20;59.10;;;;;;5008759;28;46441;-80
2023/10/04 05:50:32;;;;;;;5.33;2.90;;;8.20;58.90;;;;;;5009014;28;46560;-78
2023/10/04 05:53:01;;;;;;;5.93;3.07;;;8.30;58.80;;;;;;5028187;28;47308;-80
2023/10/04 05:55:27;;;;;;;7.80;3.60;;;8.30;58.70;;;;;;5029559;28;45868;-79
2023/10/04 05:57:53;;;;;;;6.40;3.00;;;8.40;58.60;;;;;;5029691;28;46464;-79
2023/10/04 06:00:40;;;;;;;7.83;3.50;;;8.40;58.40;;;;;;5019531;28;46414;-80
2023/10/04 06:03:08;;;;;;;7.13;3.47;;;8.50;58.30;;;;;;5002322;28;47800;-79
2023/10/04 06:05:38;;;;;;;6.07;3.47;;;8.60;58.00;;;;;;5019699;28;46425;-79
2023/10/04 06:08:11;;;;;;;5.10;3.10;;;8.70;57.80;;;;;;5001647;28;46522;-79
2023/10/04 06:10:37;;;;;;;6.37;3.20;;;8.90;57.70;;;;;;4992495;28;46801;-79
2023/10/04 06:13:03;;;;;;;8.97;4.10;;;9.00;57.40;;;;;;5019673;28;46674;-78
2023/10/04 06:15:32;;;;;;;8.17;3.77;;;9.10;57.10;;;;;;5019292;28;46484;-78
2023/10/04 06:17:59;;;;;;;6.83;2.93;;;9.30;57.10;;;;;;5019951;28;46667;-81
2023/10/04 06:20:25;;;;;;;8.30;4.20;;;9.40;57.00;;;;;;5019494;28;46573;-81
2023/10/04 06:23:07;;;;;;;6.73;3.80;;;9.50;57.00;;;;;;5018460;28;46513;-79
2023/10/04 06:25:34;;;;;;;6.97;3.60;;;9.60;57.20;;;;;;5018675;28;46481;-80
2023/10/04 06:28:01;;;;;;;8.40;3.70;;;9.70;57.00;;;;;;4993386;28;46459;-80
2023/10/04 06:30:31;;;;;;;8.43;3.63;;;9.90;56.70;;;;;;5019686;28;46881;-80
2023/10/04 06:32:59;;;;;;;8.57;4.47;;;10.10;56.70;;;;;;5000694;28;48071;-80
2023/10/04 06:35:26;;;;;;;7.70;3.70;;;10.40;55.40;;;;;;5018491;28;46641;-81
2023/10/04 06:37:54;;;;;;;9.80;4.40;;;10.50;56.20;;;;;;5019552;28;46349;-79
2023/10/04 06:40:20;;;;;;;7.37;3.60;;;10.70;54.90;;;;;;5001773;28;46519;-79
2023/10/04 06:42:48;;;;;;;8.83;4.20;;;10.90;54.70;;;;;;5019058;28;47052;-79
2023/10/04 06:45:17;;;;;;;8.90;3.60;;;11.10;54.50;;;;;;5019062;28;46634;-80
2023/10/04 06:47:45;;;;;;;10.87;4.07;;;11.30;54.40;;;;;;5020024;28;45828;-80
2023/10/04 06:50:15;;;;;;;8.90;3.57;;;11.50;54.20;;;;;;5003521;28;46733;-80
2023/10/04 06:52:47;;;;;;;6.23;3.50;;;11.70;53.90;;;;;;5020857;28;48175;-79
2023/10/04 06:55:13;;;;;;;5.57;3.30;;;11.90;53.40;;;;;;5022924;28;46424;-79
2023/10/04 06:57:39;;;;;;;9.27;3.73;;;12.10;53.60;;;;;;5023498;28;47006;-79
2023/10/04 07:00:15;;;;;;;11.73;3.63;;;12.30;53.80;;;;;;5005618;28;46953;-80
2023/10/04 07:02:53;;;;;;;16.10;4.07;;;12.50;54.00;;;;;;5004669;28;49117;-80
2023/10/04 07:05:21;;;;;;;9.97;3.50;;;12.70;54.20;;;;;;4992736;28;45850;-79
2023/10/04 07:07:49;;;;;;;11.00;3.17;;;12.90;54.00;;;;;;5020855;28;46495;-79
2023/10/04 07:10:15;;;;;;;11.10;3.43;;;13.10;53.60;;;;;;5022159;28;46468;-78
2023/10/04 07:12:45;;;;;;;6.00;3.07;;;13.40;53.30;;;;;;5021710;28;46244;-80
2023/10/04 07:15:12;;;;;;;13.60;3.23;;;13.60;53.10;;;;;;5021150;28;46487;-81
2023/10/04 07:17:42;;;;;;;10.13;3.20;;;13.80;52.60;;;;;;4997652;28;46408;-76
2023/10/04 07:20:14;;;;;;;6.90;2.90;;;14.20;52.20;;;;;;5024555;28;46447;-79
2023/10/04 07:22:43;;;;;;;9.00;3.23;;;14.40;51.60;;;;;;5015091;28;49324;-79
2023/10/04 07:25:12;;;;;;;8.40;3.00;;;14.50;51.40;;;;;;5023219;28;46384;-79
2023/10/04 07:27:38;;;;;;;11.50;2.77;;;14.60;51.50;;;;;;5005324;28;46594;-78
2023/10/04 07:30:04;;;;;;;6.60;2.80;;;14.70;51.30;;;;;;5005102;28;46513;-81
2023/10/04 07:32:30;;;;;;;8.60;2.73;;;14.70;50.90;;;;;;5024062;28;47132;-81
2023/10/04 07:34:56;;;;;;;8.03;2.90;;;14.80;51.00;;;;;;5023935;28;46263;-81
2023/10/04 07:37:21;;;;;;;5.60;2.70;;;14.90;50.50;;;;;;5027240;28;46446;-79
2023/10/04 07:39:47;;;;;;;5.40;3.00;;;15.00;50.40;;;;;;5026626;28;46140;-80
2023/10/04 07:42:12;;;;;;;7.53;2.80;;;15.10;49.80;;;;;;5027167;28;47141;-82
2023/10/04 07:44:38;;;;;;;8.37;2.73;;;15.10;49.00;;;;;;5027199;28;46470;-79
2023/10/04 07:47:04;;;;;;;8.80;2.63;;;15.00;49.00;;;;;;5021154;28;46572;-79
2023/10/04 07:49:31;;;;;;;15.10;3.40;;;14.90;48.90;;;;;;5003191;28;45887;-79
2023/10/04 07:51:57;;;;;;;10.27;2.53;;;14.90;49.20;;;;;;5020383;28;46360;-80
2023/10/04 07:54:23;;;;;;;8.13;3.03;;;14.80;49.20;;;;;;5022033;28;46570;-79
2023/10/04 07:56:51;;;;;;;13.80;3.23;;;14.80;48.80;;;;;;5002393;28;46328;-79
2023/10/04 07:59:17;;;;;;;7.80;2.80;;;14.80;48.70;;;;;;5022195;28;46572;-79
2023/10/04 08:01:43;;;;;;;7.03;3.13;;;14.70;48.80;;;;;;5021700;28;47489;-78
2023/10/04 08:04:09;;;;;;;10.17;3.00;;;14.60;48.70;;;;;;5021957;28;46506;-79
2023/10/04 08:06:35;;;;;;;8.90;3.00;;;14.70;48.50;;;;;;5002908;28;45828;-80
2023/10/04 08:09:04;;;;;;;9.03;3.00;;;14.60;48.00;;;;;;5003248;28;46522;-79
2023/10/04 08:11:31;;;;;;;5.47;2.90;;;14.60;48.00;;;;;;5018653;28;48893;-79
2023/10/04 08:13:57;;;;;;;5.80;2.33;;;14.80;47.70;;;;;;5022493;28;46413;-81
2023/10/04 08:16:23;;;;;;;7.53;2.73;;;14.90;46.80;;;;;;5021367;28;46562;-77
2023/10/04 08:18:48;;;;;;;7.80;2.87;;;14.90;46.30;;;;;;5019630;28;46691;-80
2023/10/04 08:21:15;;;;;;;5.03;2.53;;;15.00;45.90;;;;;;5021116;28;46793;-79
2023/10/04 08:23:41;;;;;;;8.20;2.47;;;15.00;45.50;;;;;;5023013;28;46471;-79
2023/10/04 08:26:16;;;;;;;7.63;2.93;;;15.10;45.20;;;;;;5020322;28;46483;-79
2023/10/04 08:28:42;;;;;;;6.03;2.80;;;15.10;43.60;;;;;;5023259;28;46659;-79
2023/10/04 08:31:16;;;;;;;8.43;2.97;;;15.20;43.50;;;;;;5034785;28;48129;-79
2023/10/04 08:33:43;;;;;;;8.53;2.73;;;15.30;43.30;;;;;;5025600;28;46405;-80
2023/10/04 08:36:17;;;;;;;5.60;2.50;;;15.50;43.40;;;;;;5004669;28;46483;-79
2023/10/04 08:38:46;;;;;;;5.80;2.80;;;15.50;42.30;;;;;;5021403;28;46574;-80
2023/10/04 08:41:12;;;;;;;7.03;2.37;;;15.70;41.70;;;;;;5002899;28;48524;-79
2023/10/04 08:43:38;;;;;;;6.13;2.77;;;15.70;41.10;;;;;;5019862;28;46424;-80
2023/10/04 08:46:07;;;;;;;9.93;2.57;;;15.70;41.10;;;;;;5003545;28;46416;-80
2023/10/04 08:48:33;;;;;;;9.37;2.97;;;15.70;40.80;;;;;;5023609;28;47736;-79
2023/10/04 08:51:11;;;;;;;8.40;2.90;;;15.60;40.40;;;;;;5019652;28;46519;-80
2023/10/04 08:53:56;;;;;;;6.70;2.70;;;15.70;40.50;;;;;;5021115;28;46091;-79
2023/10/04 08:56:24;;;;;;;5.40;2.60;;;15.50;40.50;;;;;;5020163;28;46319;-82
2023/10/04 08:58:50;;;;;;;6.57;2.50;;;15.30;40.60;;;;;;5021636;28;46544;-80
2023/10/04 09:01:19;;;;;;;12.37;2.90;;;15.30;40.40;;;;;;5020892;28;46696;-82
2023/10/04 09:03:45;;;;;;;7.47;2.50;;;15.30;40.40;;;;;;5021898;28;46472;-80
2023/10/04 09:06:14;;;;;;;6.30;2.53;;;15.40;40.00;;;;;;5027100;28;45986;-76
2023/10/04 09:08:40;;;;;;;7.40;2.40;;;15.50;39.70;;;;;;5000791;28;46499;-77
2023/10/04 09:11:12;;;;;;;4.57;2.23;;;15.70;39.10;;;;;;5025261;28;46704;-79
2023/10/04 09:13:55;;;;;;;6.53;2.70;;;15.80;38.90;;;;;;5026843;28;46299;-79
2023/10/04 09:16:29;;;;;;;6.03;2.50;;;15.90;38.30;;;;;;5030341;28;46556;-79
2023/10/04 09:19:28;;;;;;;14.10;2.97;;;16.20;37.50;;;;;;5015762;28;46952;-80
2023/10/04 09:21:56;;;;;;;7.67;3.00;;;16.40;36.40;;;;;;4972827;28;49510;-81
2023/10/04 09:24:22;;;;;;;9.90;2.83;;;16.80;36.00;;;;;;5026372;28;45925;-80
2023/10/04 09:26:54;;;;;;;6.23;2.40;;;17.00;35.00;;;;;;5025958;28;46440;-77
2023/10/04 09:29:38;;;;;;;9.13;2.77;;;17.10;33.60;;;;;;5025557;28;46620;-82
2023/10/04 09:32:05;;;;;;;6.00;2.80;;;16.70;33.80;;;;;;5013583;28;48299;-80
2023/10/04 09:34:33;;;;;;;6.00;2.30;;;16.90;34.70;;;;;;5002942;28;46423;-79
2023/10/04 09:36:59;;;;;;;6.03;2.27;;;16.80;34.10;;;;;;5019750;28;46468;-81
2023/10/04 09:39:27;;;;;;;5.30;2.10;;;16.80;33.30;;;;;;5003200;28;46349;-80
2023/10/04 09:41:55;;;;;;;4.50;2.23;;;17.00;33.30;;;;;;5018208;28;46147;-75
2023/10/04 09:44:31;;;;;;;6.00;2.70;;;16.90;31.60;;;;;;5019150;28;46537;-79
2023/10/04 09:47:02;;;;;;;5.53;2.47;;;16.90;32.00;;;;;;5002907;28;45848;-81
2023/10/04 09:49:33;;;;;;;12.90;2.50;;;17.00;31.90;;;;;;5022902;28;46433;-79
2023/10/04 09:52:00;;;;;;;6.57;2.07;;;16.90;31.30;;;;;;4993448;28;48403;-81
2023/10/04 09:54:30;;;;;;;9.03;2.43;;;17.10;31.40;;;;;;5002237;28;46448;-79
2023/10/04 09:56:57;;;;;;;9.47;2.70;;;17.20;31.50;;;;;;5019501;28;46368;-78
2023/10/04 09:59:23;;;;;;;8.03;2.60;;;17.20;30.00;;;;;;5020785;28;46441;-79
2023/10/04 10:01:54;;;;;;;6.20;2.50;;;17.20;30.20;;;;;;5018283;28;46432;-79
2023/10/04 10:04:27;;;;;;;5.40;2.30;;;17.00;29.70;;;;;;5001836;28;46794;-79
2023/10/04 10:07:06;;;;;;;6.90;2.20;;;17.10;29.30;;;;;;5002177;28;46666;-80
2023/10/04 10:09:35;;;;;;;6.33;2.07;;;17.30;28.00;;;;;;5001618;28;46512;-80
2023/10/04 10:12:02;;;;;;;5.70;2.00;;;17.20;27.50;;;;;;5020257;28;46659;-81
2023/10/04 10:14:30;;;;;;;7.53;2.07;;;17.20;27.70;;;;;;5020207;28;45845;-78
2023/10/04 10:16:56;;;;;;;5.30;1.80;;;17.30;27.10;;;;;;5018981;28;46460;-80
2023/10/04 10:19:27;;;;;;;5.43;2.10;;;17.30;25.60;;;;;;5019795;28;46936;-79
2023/10/04 10:22:15;;;;;;;7.90;2.33;;;17.20;24.60;;;;;;5002044;28;48543;-79
2023/10/04 10:24:45;;;;;;;6.10;1.80;;;17.30;24.60;;;;;;5000437;28;46680;-80
2023/10/04 10:27:14;;;;;;;6.30;2.10;;;17.40;23.80;;;;;;5018123;28;46481;-78
2023/10/04 10:29:40;;;;;;;4.40;1.60;;;17.40;23.30;;;;;;5018296;28;46552;-78
2023/10/04 10:32:20;;;;;;;3.40;1.67;;;17.40;22.40;;;;;;5018993;28;46472;-79
2023/10/04 10:34:49;;;;;;;7.33;2.30;;;17.50;22.30;;;;;;5019727;28;46529;-79
2023/10/04 10:37:15;;;;;;;5.03;1.97;;;17.60;22.10;;;;;;4988150;28;46548;-79
2023/10/04 10:39:48;;;;;;;6.93;2.07;;;17.60;21.80;;;;;;5019686;28;46493;-81
2023/10/04 10:42:15;;;;;;;6.40;2.20;;;17.70;21.80;;;;;;5018714;28;46479;-78
2023/10/04 10:44:41;;;;;;;7.13;2.90;;;17.60;20.70;;;;;;5019414;28;46662;-78
2023/10/04 10:47:25;;;;;;;5.70;2.30;;;17.50;20.70;;;;;;5019269;28;46464;-81
2023/10/04 10:49:58;;;;;;;4.40;2.20;;;17.50;20.70;;;;;;5009458;28;46011;-78
2023/10/04 10:52:38;;;;;;;4.47;2.00;;;17.50;20.70;;;;;;5019930;28;46549;-79
2023/10/04 10:55:06;;;;;;;8.23;2.10;;;17.60;20.70;;;;;;4999640;28;46376;-79
2023/10/04 10:57:34;;;;;;;4.63;1.80;;;17.70;20.80;;;;;;5020057;28;46417;-80
2023/10/04 11:00:11;;;;;;;5.53;1.97;;;17.70;20.80;;;;;;5012578;28;47237;-81
2023/10/04 11:02:37;;;;;;;6.87;2.30;;;17.70;20.80;;;;;;5018876;28;46959;-80
2023/10/04 11:05:06;;;;;;;5.10;2.10;;;17.70;20.80;;;;;;5020627;28;46417;-81
2023/10/04 11:07:32;;;;;;;5.87;2.20;;;17.90;21.00;;;;;;5021069;28;46342;-81
2023/10/04 11:09:58;;;;;;;6.50;2.47;;;18.10;20.70;;;;;;5003227;28;46682;-81
2023/10/04 11:12:25;;;;;;;5.10;2.07;;;18.10;20.00;;;;;;5021892;28;46117;-81
2023/10/04 11:14:52;;;;;;;4.00;1.53;;;18.00;19.60;;;;;;5023594;28;46488;-82
2023/10/04 11:17:21;;;;;;;4.70;1.97;;;18.00;18.30;;;;;;5024037;28;46644;-82
2023/10/04 11:19:47;;;;;;;7.80;2.00;;;18.00;18.50;;;;;;5001936;28;46477;-80
2023/10/04 11:22:14;;;;;;;5.30;2.10;;;18.00;17.90;;;;;;5018208;28;47135;-79
2023/10/04 11:24:40;;;;;;;4.60;1.93;;;18.00;18.30;;;;;;5020818;28;46434;-79
2023/10/04 11:27:10;;;;;;;5.20;1.73;;;18.00;17.80;;;;;;5017376;28;46476;-80
2023/10/04 11:29:36;;;;;;;6.03;2.07;;;18.00;17.40;;;;;;5019232;28;46802;-77
2023/10/04 11:32:02;;;;;;;6.43;2.00;;;18.00;17.30;;;;;;5017574;28;47426;-76
2023/10/04 11:34:34;;;;;;;4.60;1.43;;;17.90;17.00;;;;;;5004001;28;46476;-78
2023/10/04 11:37:00;;;;;;;4.67;2.10;;;17.90;16.90;;;;;;5021149;28;46429;-79
2023/10/04 11:39:34;;;;;;;5.13;2.33;;;17.80;16.10;;;;;;5022610;28;46107;-80
2023/10/04 11:42:04;;;;;;;5.20;1.70;;;17.70;15.50;;;;;;5023495;28;46989;-78
2023/10/04 11:44:32;;;;;;;6.20;2.30;;;17.70;15.80;;;;;;5023638;28;46433;-80
2023/10/04 11:47:03;;;;;;;6.43;2.00;;;17.70;15.40;;;;;;5006616;28;46027;-81
2023/10/04 11:49:32;;;;;;;4.87;1.87;;;17.80;15.20;;;;;;5022086;28;46532;-82
2023/10/04 11:52:00;;;;;;;4.83;2.20;;;17.70;15.50;;;;;;5022333;28;46506;-79
2023/10/04 11:54:45;;;;;;;5.40;2.00;;;17.60;16.20;;;;;;5003740;28;46397;-80
2023/10/04 11:57:11;;;;;;;4.73;2.00;;;17.50;17.60;;;;;;5023573;28;46336;-79
2023/10/04 11:59:39;;;;;;;7.60;2.50;;;17.40;16.60;;;;;;5024539;28;46626;-80
2023/10/04 12:02:06;;;;;;;6.60;2.20;;;17.40;16.80;;;;;;5022095;28;46646;-79
2023/10/04 12:04:34;;;;;;;10.03;2.57;;;17.60;17.00;;;;;;5003785;28;46457;-80
2023/10/04 12:07:06;;;;;;;4.80;1.97;;;17.60;17.50;;;;;;5021566;28;46731;-80
2023/10/04 12:09:34;;;;;;;5.20;2.23;;;17.40;16.10;;;;;;5021547;28;46526;-79
2023/10/04 12:12:02;;;;;;;3.83;1.60;;;17.30;16.70;;;;;;5003047;28;49424;-79
2023/10/04 12:14:31;;;;;;;5.43;2.50;;;17.40;16.70;;;;;;5019294;28;46815;-78
2023/10/04 12:17:03;;;;;;;5.20;1.90;;;17.50;16.70;;;;;;5020556;28;46131;-80
2023/10/04 12:19:34;;;;;;;5.80;2.20;;;17.70;17.00;;;;;;5020731;28;46700;-79
2023/10/04 12:22:02;;;;;;;6.43;2.03;;;17.70;16.10;;;;;;5021056;28;46483;-79
2023/10/04 12:24:32;;;;;;;8.43;2.47;;;17.70;16.40;;;;;;5019443;28;46707;-79
2023/10/04 12:27:00;;;;;;;4.17;1.80;;;17.70;15.90;;;;;;5021405;28;46568;-79
2023/10/04 12:29:29;;;;;;;5.00;2.17;;;17.70;16.00;;;;;;5022170;28;46338;-79
2023/10/04 12:31:55;;;;;;;5.43;2.13;;;17.90;16.20;;;;;;5020377;28;47231;-80
2023/10/04 12:34:24;;;;;;;14.33;2.43;;;18.00;15.80;;;;;;5018871;28;45975;-80
2023/10/04 12:36:51;;;;;;;7.03;2.43;;;18.00;15.40;;;;;;5020360;28;46692;-79
2023/10/04 12:39:17;;;;;;;5.97;2.43;;;18.00;15.30;;;;;;5003968;28;46285;-80
2023/10/04 12:41:45;;;;;;;9.20;2.63;;;18.00;15.50;;;;;;5019934;28;46871;-79
2023/10/04 12:44:12;;;;;;;5.43;2.03;;;18.10;15.70;;;;;;5005279;28;46730;-79
2023/10/04 12:46:39;;;;;;;6.80;2.37;;;18.20;15.30;;;;;;5020358;28;46594;-79
2023/10/04 12:49:07;;;;;;;5.13;1.90;;;18.20;15.30;;;;;;5019462;28;46255;-79
2023/10/04 12:51:35;;;;;;;5.97;2.30;;;18.10;14.80;;;;;;5020793;28;46514;-80
2023/10/04 12:54:01;;;;;;;6.27;2.10;;;18.20;15.00;;;;;;5002911;28;46925;-81